Saint Paul, Minnesota
Current Conditions -  °F | °C
As of 3:53 AM on Tuesday 21 Oct 2014 (Local Time) from KSTP Reporting Station
Clear Clear  
Wind Chill: 37°   Ceiling: Unl
Heat Index: 40°   Visibility: 10mi
Dew Point: 38°   Wind: 5mph
Humidity: 93%   Direction: 320°NW
Pressure: 30.16"   Gusts: NA
Location:  44.93°N, 93.07°W
Report Text: KSTP 210853Z AUTO 32004KT 10SM CLR 04/03 A3016 RMK AO2 SLP214 T00440033 51017
Loading
Personal Weather Stations






























Interactive Weather Map
Tropical Storm Tracking
New forecast layout! Learn more

10-Day Weather Forecast

Advertisements
Track Severe Weather on mobile